Terminal Aerodrome Forecast
Issued by NWS St Louis, MO

Home | Current Version | Previous Version | Text Only | Print | Product List | Glossary On
Versions: 1 2 3 4 5 6 7 8 9 10 11 12 13 14 15 16 17
000
FTUS43 KLSX 252100 AAA
TAFCOU
TAF AMD
KCOU 252111Z 2521/2618 35018G28KT 3SM -RA BR OVC007
     FM252200 34018G28KT 2SM -SN BR OVC006
     FM260100 35012G22KT P6SM OVC010
     FM260600 31006KT P6SM OVC010
     FM261500 23008KT P6SM SCT020 BKN080=

USA.gov is the U.S. government's official web portal to all federal, state and local government web resources and services.